Time;durP1;ratioP1;P1;durP2;ratioP2;P2;SDS_P1;SDS_P2;PMS_P1;PMS_P2;Temp;Humidity;BMP_temperature;BMP_pressure;BME280_temperature;BME280_humidity;BME280_pressure;Samples;Min_cycle;Max_cycle;Signal;HPM_P1;HPM_P2
2020/12/05 00:00:21;;;;;;;;;;;21.70;54.40;;;;;;5029664;28;1341;-64
2020/12/05 00:02:48;;;;;;;;;;;21.60;54.40;;;;;;5032497;28;1115;-67
2020/12/05 00:05:14;;;;;;;;;;;21.70;54.40;;;;;;5032206;28;1918;-65
2020/12/05 00:07:39;;;;;;;;;;;21.60;54.40;;;;;;5027848;28;1330;-65
2020/12/05 00:10:05;;;;;;;;;;;21.60;54.40;;;;;;5012961;28;1642;-65
2020/12/05 00:12:30;;;;;;;;;;;21.60;54.50;;;;;;5013016;28;1358;-64
2020/12/05 00:14:56;;;;;;;;;;;21.60;54.50;;;;;;5012867;28;1660;-66
2020/12/05 00:17:21;;;;;;;;;;;21.60;54.60;;;;;;5028939;28;1153;-65
2020/12/05 00:19:47;;;;;;;;;;;21.60;54.60;;;;;;5033149;28;1330;-65
2020/12/05 00:22:12;;;;;;;;;;;21.60;54.70;;;;;;5044546;28;922;-64
2020/12/05 00:24:38;;;;;;;;;;;21.60;54.70;;;;;;5032519;28;1619;-66
2020/12/05 00:27:03;;;;;;;;;;;21.60;54.70;;;;;;5032190;28;1894;-65
2020/12/05 00:29:28;;;;;;;;;;;21.50;54.70;;;;;;5032362;28;1710;-65
2020/12/05 00:31:54;;;;;;;;;;;21.50;54.70;;;;;;5032362;28;1632;-65
2020/12/05 00:34:20;;;;;;;;;;;21.50;54.70;;;;;;5032119;28;1354;-65
2020/12/05 00:36:45;;;;;;;;;;;21.50;54.80;;;;;;5032256;28;1454;-65
2020/12/05 00:39:11;;;;;;;;;;;21.50;54.80;;;;;;5014507;28;1632;-65
2020/12/05 00:41:36;;;;;;;;;;;21.50;54.90;;;;;;5032440;28;1623;-65
2020/12/05 00:44:02;;;;;;;;;;;21.50;54.80;;;;;;5030967;28;1697;-65
2020/12/05 00:46:28;;;;;;;;;;;21.50;54.90;;;;;;5031970;28;1890;-65
2020/12/05 00:48:53;;;;;;;;;;;21.50;54.90;;;;;;5022323;28;1435;-65
2020/12/05 00:51:18;;;;;;;;;;;21.50;54.90;;;;;;5025069;28;1540;-65
2020/12/05 00:53:44;;;;;;;;;;;21.50;54.90;;;;;;5022525;28;1495;-66
2020/12/05 00:56:09;;;;;;;;;;;21.40;54.90;;;;;;5017405;28;1151;-65
2020/12/05 00:58:35;;;;;;;;;;;21.40;54.90;;;;;;5031892;28;1604;-66
2020/12/05 01:01:01;;;;;;;;;;;21.40;55.00;;;;;;5016087;28;1432;-66
2020/12/05 01:03:27;;;;;;;;;;;21.40;55.00;;;;;;5022226;28;1433;-65
2020/12/05 01:05:53;;;;;;;;;;;21.40;55.00;;;;;;5015536;28;1938;-66
2020/12/05 01:08:18;;;;;;;;;;;21.40;55.00;;;;;;5020859;28;1158;-65
2020/12/05 01:10:44;;;;;;;;;;;21.40;55.10;;;;;;5032197;28;981;-65
2020/12/05 01:13:09;;;;;;;;;;;21.40;55.10;;;;;;5032105;28;1393;-66
2020/12/05 01:15:35;;;;;;;;;;;21.40;55.10;;;;;;5029153;28;1016;-66
2020/12/05 01:18:00;;;;;;;;;;;21.30;55.10;;;;;;5010777;28;1665;-65
2020/12/05 01:20:26;;;;;;;;;;;21.30;55.10;;;;;;5007462;28;1778;-65
2020/12/05 01:22:51;;;;;;;;;;;21.30;55.10;;;;;;5034033;28;1347;-65
2020/12/05 01:25:17;;;;;;;;;;;21.30;55.10;;;;;;5025561;28;1958;-67
2020/12/05 01:27:43;;;;;;;;;;;21.30;55.20;;;;;;5011984;28;1481;-65
2020/12/05 01:30:09;;;;;;;;;;;21.30;55.20;;;;;;5012751;28;1241;-66
2020/12/05 01:32:35;;;;;;;;;;;21.30;55.20;;;;;;5005631;28;1155;-67
2020/12/05 01:35:00;;;;;;;;;;;21.30;55.20;;;;;;5013531;28;1689;-70
2020/12/05 01:37:25;;;;;;;;;;;21.30;55.30;;;;;;5031526;28;1258;-65
2020/12/05 01:39:51;;;;;;;;;;;21.30;55.30;;;;;;5030296;28;1710;-66
2020/12/05 01:42:17;;;;;;;;;;;21.30;55.30;;;;;;5031864;28;1328;-65
2020/12/05 01:44:42;;;;;;;;;;;21.30;55.30;;;;;;5031569;28;1353;-65
2020/12/05 01:47:09;;;;;;;;;;;21.30;55.30;;;;;;5030804;28;1954;-66
2020/12/05 01:49:35;;;;;;;;;;;21.30;55.30;;;;;;5021917;28;1421;-66
2020/12/05 01:52:00;;;;;;;;;;;21.20;55.40;;;;;;5043442;28;1506;-65
2020/12/05 01:54:26;;;;;;;;;;;21.20;55.30;;;;;;5038051;28;807;-65
2020/12/05 01:57:00;;;;;;;;;;;21.20;55.40;;;;;;5024396;28;1488;-65
2020/12/05 01:59:26;;;;;;;;;;;21.20;55.40;;;;;;5027027;28;1229;-65
2020/12/05 02:02:01;;;;;;;;;;;21.20;55.40;;;;;;5014949;28;1368;-65
2020/12/05 02:04:30;;;;;;;;;;;21.20;55.50;;;;;;5018887;28;1659;-65
2020/12/05 02:07:16;;;;;;;;;;;21.20;55.50;;;;;;5033167;28;1902;-66
2020/12/05 02:09:43;;;;;;;;;;;21.20;55.50;;;;;;5033414;28;1730;-67
2020/12/05 02:12:27;;;;;;;;;;;21.20;55.50;;;;;;5018165;28;1152;-65
2020/12/05 02:14:55;;;;;;;;;;;21.20;55.50;;;;;;5013734;28;1723;-65
2020/12/05 02:17:20;;;;;;;;;;;21.20;55.50;;;;;;5013250;28;1632;-66
2020/12/05 02:19:47;;;;;;;;;;;21.20;55.50;;;;;;5022375;28;1614;-65
2020/12/05 02:22:13;;;;;;;;;;;21.20;55.60;;;;;;5024461;28;1636;-65
2020/12/05 02:24:39;;;;;;;;;;;21.10;55.50;;;;;;5025795;28;780;-65
2020/12/05 02:27:04;;;;;;;;;;;21.10;55.50;;;;;;5033979;28;1959;-66
2020/12/05 02:29:31;;;;;;;;;;;21.10;55.50;;;;;;5033098;28;1733;-67
2020/12/05 02:31:57;;;;;;;;;;;21.20;55.60;;;;;;5014975;28;1201;-65
2020/12/05 02:34:22;;;;;;;;;;;21.20;55.50;;;;;;5013400;28;1645;-66
2020/12/05 02:36:48;;;;;;;;;;;21.20;55.50;;;;;;5014477;28;1655;-66
2020/12/05 02:39:13;;;;;;;;;;;21.20;55.40;;;;;;5023982;28;1323;-66
2020/12/05 02:41:39;;;;;;;;;;;21.20;55.40;;;;;;5031113;28;1660;-65
2020/12/05 02:44:05;;;;;;;;;;;21.20;55.30;;;;;;5019977;28;1049;-67
2020/12/05 02:46:30;;;;;;;;;;;21.20;55.30;;;;;;5018884;28;1943;-66
2020/12/05 02:48:56;;;;;;;;;;;21.20;55.30;;;;;;5021030;28;1360;-66
2020/12/05 02:51:22;;;;;;;;;;;21.20;55.30;;;;;;5025368;28;1278;-66
2020/12/05 02:53:47;;;;;;;;;;;21.20;55.30;;;;;;5020277;28;1321;-66
2020/12/05 02:56:19;;;;;;;;;;;21.20;55.40;;;;;;5022389;28;1237;-66
2020/12/05 02:58:45;;;;;;;;;;;21.20;55.30;;;;;;5020424;28;1367;-68
2020/12/05 03:01:10;;;;;;;;;;;21.20;55.40;;;;;;5020543;28;1361;-68
2020/12/05 03:03:36;;;;;;;;;;;21.20;55.30;;;;;;5021145;28;1388;-64
2020/12/05 03:06:01;;;;;;;;;;;21.20;55.40;;;;;;5020077;28;1902;-66
2020/12/05 03:08:27;;;;;;;;;;;21.20;55.40;;;;;;5022581;28;1482;-66
2020/12/05 03:10:52;;;;;;;;;;;21.20;55.40;;;;;;5020485;28;1301;-65
2020/12/05 03:13:18;;;;;;;;;;;21.20;55.40;;;;;;5021469;28;1340;-66
2020/12/05 03:15:43;;;;;;;;;;;21.20;55.40;;;;;;5028987;28;1500;-64
2020/12/05 03:18:09;;;;;;;;;;;21.20;55.40;;;;;;5033992;28;1678;-67
2020/12/05 03:20:34;;;;;;;;;;;21.20;55.50;;;;;;5038176;28;1466;-65
2020/12/05 03:23:00;;;;;;;;;;;21.10;55.40;;;;;;5022207;28;1228;-65
2020/12/05 03:25:25;;;;;;;;;;;21.10;55.40;;;;;;5021521;28;1956;-65
2020/12/05 03:27:51;;;;;;;;;;;21.10;55.50;;;;;;5022346;28;1296;-67
2020/12/05 03:30:16;;;;;;;;;;;21.10;55.50;;;;;;5022413;28;1303;-67
2020/12/05 03:32:43;;;;;;;;;;;21.10;55.50;;;;;;5021709;28;1220;-65
2020/12/05 03:35:08;;;;;;;;;;;21.10;55.60;;;;;;5023490;28;1392;-64
2020/12/05 03:37:34;;;;;;;;;;;21.10;55.60;;;;;;5020431;28;1231;-65
2020/12/05 03:40:00;;;;;;;;;;;21.10;55.60;;;;;;5021234;28;1495;-65
2020/12/05 03:42:26;;;;;;;;;;;21.10;55.60;;;;;;5020870;28;1161;-65
2020/12/05 03:44:51;;;;;;;;;;;21.10;55.60;;;;;;5022512;28;1485;-67
2020/12/05 03:47:17;;;;;;;;;;;21.10;55.70;;;;;;5008822;28;1902;-65
2020/12/05 03:49:42;;;;;;;;;;;21.10;55.60;;;;;;5026769;28;1399;-66
2020/12/05 03:52:08;;;;;;;;;;;21.10;55.70;;;;;;5025242;28;1283;-67
2020/12/05 03:54:33;;;;;;;;;;;21.10;55.70;;;;;;5022143;28;1256;-68
2020/12/05 03:56:59;;;;;;;;;;;21.10;55.70;;;;;;5023560;28;1271;-65
2020/12/05 03:59:24;;;;;;;;;;;21.00;55.70;;;;;;5020437;28;1372;-65
2020/12/05 04:01:50;;;;;;;;;;;21.00;55.70;;;;;;5019732;28;1374;-65
2020/12/05 04:04:15;;;;;;;;;;;21.00;55.70;;;;;;5020872;28;1492;-65
2020/12/05 04:06:41;;;;;;;;;;;21.00;55.70;;;;;;5027280;28;1965;-65
2020/12/05 04:09:06;;;;;;;;;;;21.00;55.70;;;;;;5015481;28;1327;-65
2020/12/05 04:11:31;;;;;;;;;;;21.00;55.70;;;;;;5031951;28;1434;-67
2020/12/05 04:13:57;;;;;;;;;;;21.00;55.70;;;;;;5015971;28;1746;-65
2020/12/05 04:16:23;;;;;;;;;;;21.10;55.70;;;;;;5032150;28;1659;-65
2020/12/05 04:18:48;;;;;;;;;;;21.10;55.60;;;;;;5033302;28;1697;-66
2020/12/05 04:21:13;;;;;;;;;;;21.20;55.50;;;;;;5030809;28;1436;-65
2020/12/05 04:23:39;;;;;;;;;;;21.20;55.40;;;;;;5016739;28;1651;-64
2020/12/05 04:26:04;;;;;;;;;;;21.30;55.20;;;;;;5033118;28;1894;-65
2020/12/05 04:28:30;;;;;;;;;;;21.40;55.10;;;;;;5020102;28;1493;-67
2020/12/05 04:30:55;;;;;;;;;;;21.50;54.90;;;;;;5033414;28;1431;-64
2020/12/05 04:33:21;;;;;;;;;;;21.60;54.70;;;;;;5031860;28;1423;-65
2020/12/05 04:35:46;;;;;;;;;;;21.70;54.50;;;;;;5032102;28;1449;-65
2020/12/05 04:38:12;;;;;;;;;;;21.80;54.30;;;;;;5019557;28;1436;-64
2020/12/05 04:40:37;;;;;;;;;;;21.90;54.20;;;;;;5033351;28;1746;-65
2020/12/05 04:43:03;;;;;;;;;;;21.90;53.90;;;;;;5017295;28;1243;-65
2020/12/05 04:45:28;;;;;;;;;;;22.00;53.80;;;;;;5013261;28;1906;-66
2020/12/05 04:47:54;;;;;;;;;;;22.10;53.70;;;;;;5011977;28;1432;-65
2020/12/05 04:50:19;;;;;;;;;;;22.10;53.60;;;;;;5012142;28;1692;-65
2020/12/05 04:52:48;;;;;;;;;;;22.20;53.50;;;;;;5027401;28;1413;-66
2020/12/05 04:55:14;;;;;;;;;;;22.20;53.40;;;;;;5032899;28;1683;-66
2020/12/05 04:57:54;;;;;;;;;;;22.20;53.30;;;;;;5029314;28;1061;-66
2020/12/05 05:00:20;;;;;;;;;;;22.30;53.20;;;;;;5014549;28;2053;-66
2020/12/05 05:02:45;;;;;;;;;;;22.30;53.10;;;;;;5036970;28;1221;-65
2020/12/05 05:05:11;;;;;;;;;;;22.40;53.10;;;;;;5021713;28;1976;-66
2020/12/05 05:07:47;;;;;;;;;;;22.40;53.00;;;;;;5011671;28;1247;-66
2020/12/05 05:10:18;;;;;;;;;;;22.40;52.90;;;;;;5011841;28;1394;-66
2020/12/05 05:12:44;;;;;;;;;;;22.40;52.90;;;;;;5011918;28;1483;-65
2020/12/05 05:15:28;;;;;;;;;;;22.50;52.90;;;;;;5026141;28;1178;-65
2020/12/05 05:17:54;;;;;;;;;;;22.50;52.80;;;;;;5012908;28;1585;-65
2020/12/05 05:20:20;;;;;;;;;;;22.50;52.80;;;;;;5026922;28;1253;-66
2020/12/05 05:22:46;;;;;;;;;;;22.50;52.70;;;;;;5013459;28;1704;-65
2020/12/05 05:25:12;;;;;;;;;;;22.50;52.70;;;;;;5018994;28;1964;-65
2020/12/05 05:27:37;;;;;;;;;;;22.60;52.70;;;;;;5035225;28;1397;-65
2020/12/05 05:30:07;;;;;;;;;;;22.60;52.70;;;;;;5035542;28;1767;-65
2020/12/05 05:32:41;;;;;;;;;;;22.60;52.60;;;;;;5035250;28;1501;-65
2020/12/05 05:35:13;;;;;;;;;;;22.60;52.60;;;;;;5036560;28;1321;-65
2020/12/05 05:37:40;;;;;;;;;;;22.60;52.60;;;;;;5035107;28;1399;-65
2020/12/05 05:40:06;;;;;;;;;;;22.60;52.60;;;;;;5023264;28;1468;-67
2020/12/05 05:42:31;;;;;;;;;;;22.60;52.60;;;;;;5035232;28;1421;-66
2020/12/05 05:45:15;;;;;;;;;;;22.60;52.60;;;;;;5031375;28;1182;-64
2020/12/05 05:47:41;;;;;;;;;;;22.60;52.60;;;;;;5017089;28;1407;-64
2020/12/05 05:50:22;;;;;;;;;;;22.60;52.60;;;;;;5035000;28;1405;-64
2020/12/05 05:53:00;;;;;;;;;;;22.60;52.60;;;;;;5047871;28;1369;-65
2020/12/05 05:55:46;;;;;;;;;;;22.60;52.60;;;;;;5036106;28;1362;-64
2020/12/05 05:58:13;;;;;;;;;;;22.60;52.60;;;;;;5036466;28;1217;-65
2020/12/05 06:00:39;;;;;;;;;;;22.60;52.70;;;;;;5035880;28;1352;-65
2020/12/05 06:03:14;;;;;;;;;;;22.60;52.70;;;;;;5036245;28;1274;-65
2020/12/05 06:05:39;;;;;;;;;;;22.60;52.80;;;;;;5034485;28;1963;-66
2020/12/05 06:08:05;;;;;;;;;;;22.60;52.80;;;;;;5034491;28;1774;-65
2020/12/05 06:10:30;;;;;;;;;;;22.60;52.80;;;;;;5034505;28;1591;-65
2020/12/05 06:12:56;;;;;;;;;;;22.50;52.80;;;;;;5035961;28;1599;-65
2020/12/05 06:15:21;;;;;;;;;;;22.50;52.90;;;;;;5034391;28;1410;-65
2020/12/05 06:17:47;;;;;;;;;;;22.50;53.30;;;;;;5035437;28;1607;-65
2020/12/05 06:20:12;;;;;;;;;;;22.50;53.00;;;;;;5034803;28;1740;-66
2020/12/05 06:22:42;;;;;;;;;;;22.50;53.10;;;;;;5014554;28;1336;-66
2020/12/05 06:25:11;;;;;;;;;;;22.50;53.10;;;;;;5014491;28;1948;-65
2020/12/05 06:27:39;;;;;;;;;;;22.40;53.10;;;;;;5014176;28;1923;-65
2020/12/05 06:30:06;;;;;;;;;;;22.40;53.10;;;;;;5014567;28;1640;-65
2020/12/05 06:32:38;;;;;;;;;;;22.40;53.20;;;;;;5015664;28;1681;-65
2020/12/05 06:35:04;;;;;;;;;;;22.40;53.80;;;;;;5014317;28;1383;-65
2020/12/05 06:37:33;;;;;;;;;;;22.40;53.30;;;;;;5014121;28;1655;-66
2020/12/05 06:39:59;;;;;;;;;;;22.30;53.30;;;;;;5015523;28;1321;-66
2020/12/05 06:42:25;;;;;;;;;;;22.40;53.40;;;;;;5015406;28;1619;-65
2020/12/05 06:44:50;;;;;;;;;;;22.30;53.40;;;;;;5013266;28;1682;-66
2020/12/05 06:47:25;;;;;;;;;;;22.30;53.40;;;;;;5015024;28;1898;-65
2020/12/05 06:49:51;;;;;;;;;;;22.30;53.50;;;;;;5014071;28;1906;-65
2020/12/05 06:52:25;;;;;;;;;;;22.30;53.50;;;;;;5019257;28;2111;-65
2020/12/05 06:55:09;;;;;;;;;;;22.30;53.60;;;;;;5028231;28;1376;-64
2020/12/05 06:57:35;;;;;;;;;;;22.30;53.60;;;;;;5014997;28;1649;-64
2020/12/05 07:00:19;;;;;;;;;;;22.20;53.70;;;;;;5013565;28;1594;-65
2020/12/05 07:02:54;;;;;;;;;;;22.20;53.70;;;;;;5014988;28;1422;-66
2020/12/05 07:05:20;;;;;;;;;;;22.20;53.70;;;;;;5021558;28;1918;-65
2020/12/05 07:07:45;;;;;;;;;;;22.20;53.60;;;;;;5033769;28;1401;-65
2020/12/05 07:10:11;;;;;;;;;;;22.10;53.70;;;;;;5031401;28;1704;-66
2020/12/05 07:12:37;;;;;;;;;;;22.10;53.80;;;;;;5032892;28;1515;-65
2020/12/05 07:15:20;;;;;;;;;;;22.10;53.80;;;;;;5032069;28;1363;-66
2020/12/05 07:17:46;;;;;;;;;;;22.10;53.90;;;;;;5034308;28;1708;-65
2020/12/05 07:20:12;;;;;;;;;;;22.10;53.90;;;;;;5028734;28;1335;-64
2020/12/05 07:22:37;;;;;;;;;;;22.10;53.90;;;;;;5014334;28;1604;-65
2020/12/05 07:25:03;;;;;;;;;;;22.10;54.00;;;;;;5017065;28;1581;-65
2020/12/05 07:27:28;;;;;;;;;;;22.00;53.90;;;;;;5014218;28;1902;-64
2020/12/05 07:29:54;;;;;;;;;;;22.00;54.00;;;;;;5014222;28;1526;-65
2020/12/05 07:32:19;;;;;;;;;;;22.00;54.00;;;;;;5014674;28;1080;-64
2020/12/05 07:34:45;;;;;;;;;;;22.00;54.10;;;;;;5014386;28;1557;-63
2020/12/05 07:37:22;;;;;;;;;;;22.00;54.10;;;;;;5013059;28;1678;-64
2020/12/05 07:39:48;;;;;;;;;;;21.90;54.10;;;;;;5014167;28;1676;-63
2020/12/05 07:42:13;;;;;;;;;;;21.90;54.10;;;;;;5014326;28;1120;-64
2020/12/05 07:44:38;;;;;;;;;;;21.90;54.20;;;;;;5012308;28;1396;-64
2020/12/05 07:47:15;;;;;;;;;;;21.90;54.20;;;;;;5022245;28;1898;-65
2020/12/05 07:49:48;;;;;;;;;;;21.90;54.20;;;;;;5033795;28;1440;-65
2020/12/05 07:52:14;;;;;;;;;;;21.90;54.30;;;;;;5042273;28;1141;-66
2020/12/05 07:54:48;;;;;;;;;;;21.90;54.30;;;;;;5032574;28;1732;-66
2020/12/05 07:57:14;;;;;;;;;;;21.80;54.30;;;;;;5015574;28;1670;-65
2020/12/05 07:59:39;;;;;;;;;;;21.80;54.40;;;;;;5033556;28;1338;-66
2020/12/05 08:02:06;;;;;;;;;;;21.80;54.40;;;;;;5032516;28;1716;-65
2020/12/05 08:04:38;;;;;;;;;;;21.80;54.40;;;;;;5032034;28;1719;-65
2020/12/05 08:07:17;;;;;;;;;;;21.80;54.50;;;;;;5033390;28;1961;-65
2020/12/05 08:09:43;;;;;;;;;;;21.80;54.50;;;;;;5032400;28;1711;-65
2020/12/05 08:12:12;;;;;;;;;;;21.80;54.50;;;;;;5033659;28;1680;-66
2020/12/05 08:14:38;;;;;;;;;;;21.80;54.50;;;;;;5032292;28;1618;-65
2020/12/05 08:17:03;;;;;;;;;;;21.80;54.50;;;;;;5033151;28;1658;-64
2020/12/05 08:19:29;;;;;;;;;;;21.80;54.50;;;;;;5032650;28;1766;-65
2020/12/05 08:21:54;;;;;;;;;;;21.90;54.40;;;;;;5018923;28;1440;-65
2020/12/05 08:24:20;;;;;;;;;;;21.90;54.30;;;;;;5013503;28;1248;-65
2020/12/05 08:26:47;;;;;;;;;;;22.00;54.20;;;;;;5013475;28;1984;-65
2020/12/05 08:29:13;;;;;;;;;;;22.00;54.10;;;;;;5013569;28;1412;-65
2020/12/05 08:31:39;;;;;;;;;;;22.10;54.00;;;;;;5013611;28;1699;-65
2020/12/05 08:34:05;;;;;;;;;;;22.20;53.90;;;;;;5012429;28;1734;-65
2020/12/05 08:36:34;;;;;;;;;;;22.20;53.80;;;;;;5013312;28;1745;-65
2020/12/05 08:39:12;;;;;;;;;;;22.20;53.60;;;;;;5012269;28;1412;-65
2020/12/05 08:41:47;;;;;;;;;;;22.30;53.60;;;;;;5012094;28;1398;-66
2020/12/05 08:44:14;;;;;;;;;;;22.30;53.50;;;;;;5013463;28;1623;-66
2020/12/05 08:46:39;;;;;;;;;;;22.30;53.40;;;;;;5013029;28;1954;-66
2020/12/05 08:49:14;;;;;;;;;;;22.40;53.40;;;;;;5012241;28;1703;-66
2020/12/05 08:51:41;;;;;;;;;;;22.40;53.30;;;;;;5026239;28;1791;-66
2020/12/05 08:54:06;;;;;;;;;;;22.40;53.30;;;;;;5025323;28;1768;-66
2020/12/05 08:56:32;;;;;;;;;;;22.40;53.20;;;;;;5013580;28;1410;-67
2020/12/05 08:58:57;;;;;;;;;;;22.40;53.20;;;;;;5017208;28;1847;-67
2020/12/05 09:01:23;;;;;;;;;;;22.40;53.20;;;;;;5017665;28;1467;-66
2020/12/05 09:03:48;;;;;;;;;;;22.40;53.20;;;;;;5015851;28;1405;-66
2020/12/05 09:06:14;;;;;;;;;;;22.40;53.20;;;;;;5017059;28;1906;-65
2020/12/05 09:08:43;;;;;;;;;;;22.40;53.20;;;;;;5015909;28;1712;-65
2020/12/05 09:11:19;;;;;;;;;;;22.40;53.30;;;;;;5015927;28;1716;-65
2020/12/05 09:13:45;;;;;;;;;;;22.40;53.30;;;;;;5017210;28;1511;-65
2020/12/05 09:16:10;;;;;;;;;;;22.40;53.30;;;;;;5016922;28;1598;-64
2020/12/05 09:18:42;;;;;;;;;;;22.40;53.40;;;;;;5016918;28;1507;-64
2020/12/05 09:21:11;;;;;;;;;;;22.40;53.40;;;;;;5024667;28;1426;-65
2020/12/05 09:23:37;;;;;;;;;;;22.30;53.40;;;;;;5016895;28;1469;-64
2020/12/05 09:26:03;;;;;;;;;;;22.30;53.40;;;;;;5016566;28;1958;-65
2020/12/05 09:28:29;;;;;;;;;;;22.30;53.40;;;;;;5015904;28;1647;-65
2020/12/05 09:30:55;;;;;;;;;;;22.30;53.50;;;;;;5016718;28;1650;-65
2020/12/05 09:33:20;;;;;;;;;;;22.30;53.50;;;;;;5016693;28;1723;-65
2020/12/05 09:35:46;;;;;;;;;;;22.30;53.50;;;;;;5015186;28;1580;-64
2020/12/05 09:38:11;;;;;;;;;;;22.30;53.60;;;;;;5016521;28;1698;-64
2020/12/05 09:40:37;;;;;;;;;;;22.30;53.60;;;;;;5014541;28;1614;-64
2020/12/05 09:43:02;;;;;;;;;;;22.20;53.60;;;;;;5034106;28;1686;-65
2020/12/05 09:45:28;;;;;;;;;;;22.20;53.60;;;;;;4998659;28;2019;-65
2020/12/05 09:47:53;;;;;;;;;;;22.20;53.70;;;;;;5015758;28;1413;-64
2020/12/05 09:50:19;;;;;;;;;;;22.20;53.70;;;;;;5027111;28;1268;-64
2020/12/05 09:52:44;;;;;;;;;;;22.20;53.80;;;;;;5045597;28;1693;-65
2020/12/05 09:55:10;;;;;;;;;;;22.20;53.80;;;;;;5015842;28;1385;-65
2020/12/05 09:57:36;;;;;;;;;;;22.20;53.80;;;;;;5014862;28;1402;-64
2020/12/05 10:00:04;;;;;;;;;;;22.10;53.80;;;;;;5021229;28;1752;-65
2020/12/05 10:02:29;;;;;;;;;;;22.10;53.90;;;;;;5013470;28;1939;-65
2020/12/05 10:04:55;;;;;;;;;;;22.10;53.90;;;;;;5025121;28;1335;-65
2020/12/05 10:07:20;;;;;;;;;;;22.10;53.90;;;;;;5017686;28;1902;-65
2020/12/05 10:09:46;;;;;;;;;;;22.10;53.90;;;;;;5018705;28;1811;-64
2020/12/05 10:12:12;;;;;;;;;;;22.10;53.90;;;;;;5017190;28;1725;-64
2020/12/05 10:14:37;;;;;;;;;;;22.20;53.90;;;;;;5018864;28;1348;-64
2020/12/05 10:17:02;;;;;;;;;;;22.20;53.80;;;;;;5015241;28;1372;-65
2020/12/05 10:19:28;;;;;;;;;;;22.30;53.80;;;;;;5026581;28;1370;-65
2020/12/05 10:21:53;;;;;;;;;;;22.30;53.70;;;;;;5021814;28;1322;-64
2020/12/05 10:24:19;;;;;;;;;;;22.30;53.60;;;;;;5023326;28;1399;-64
2020/12/05 10:26:48;;;;;;;;;;;22.30;53.50;;;;;;5017911;28;1910;-66
2020/12/05 10:29:14;;;;;;;;;;;22.40;53.50;;;;;;5026633;28;2103;-65
2020/12/05 10:31:43;;;;;;;;;;;22.40;53.40;;;;;;5017668;28;1457;-64
2020/12/05 10:34:08;;;;;;;;;;;22.40;53.30;;;;;;5027226;28;1360;-64
2020/12/05 10:36:33;;;;;;;;;;;22.40;53.20;;;;;;5045898;28;1373;-65
2020/12/05 10:38:59;;;;;;;;;;;22.50;53.30;;;;;;5014108;28;1657;-65
2020/12/05 10:41:24;;;;;;;;;;;22.50;53.20;;;;;;5014504;28;1308;-65
2020/12/05 10:43:50;;;;;;;;;;;22.50;53.20;;;;;;5013684;28;1116;-65
2020/12/05 10:46:15;;;;;;;;;;;22.50;53.10;;;;;;5022634;28;1907;-65
2020/12/05 10:48:41;;;;;;;;;;;22.50;53.10;;;;;;5024660;28;1343;-64
2020/12/05 10:51:06;;;;;;;;;;;22.50;53.10;;;;;;5033934;28;1368;-65
2020/12/05 10:53:32;;;;;;;;;;;22.50;53.10;;;;;;5027393;28;1415;-64
2020/12/05 10:55:57;;;;;;;;;;;22.50;53.10;;;;;;5018562;28;1541;-65
2020/12/05 10:58:22;;;;;;;;;;;22.60;53.20;;;;;;5014018;28;1357;-64
2020/12/05 11:00:48;;;;;;;;;;;22.50;53.10;;;;;;5014070;28;1373;-65
2020/12/05 11:03:13;;;;;;;;;;;22.50;53.20;;;;;;5020239;28;1646;-65
2020/12/05 11:05:39;;;;;;;;;;;22.50;53.20;;;;;;5019014;28;1970;-64
2020/12/05 11:08:04;;;;;;;;;;;22.50;53.20;;;;;;5013665;28;1651;-65
2020/12/05 11:10:30;;;;;;;;;;;22.50;53.20;;;;;;5013972;28;1461;-65
2020/12/05 11:12:55;;;;;;;;;;;22.50;53.30;;;;;;5013894;28;1358;-65
2020/12/05 11:15:21;;;;;;;;;;;22.40;53.30;;;;;;5013664;28;1659;-65
2020/12/05 11:17:46;;;;;;;;;;;22.50;53.40;;;;;;5013590;28;1598;-64
2020/12/05 11:20:12;;;;;;;;;;;22.40;53.30;;;;;;5021407;28;1647;-65
2020/12/05 11:22:38;;;;;;;;;;;22.40;53.40;;;;;;5021209;28;1649;-65
2020/12/05 11:25:03;;;;;;;;;;;22.40;53.40;;;;;;5025213;28;1352;-65
2020/12/05 11:27:29;;;;;;;;;;;22.40;53.50;;;;;;5013044;28;1969;-65
2020/12/05 11:29:54;;;;;;;;;;;22.40;53.40;;;;;;5013462;28;1667;-65
2020/12/05 11:32:20;;;;;;;;;;;22.40;53.50;;;;;;5016383;28;1074;-65
2020/12/05 11:34:45;;;;;;;;;;;22.40;53.50;;;;;;5022791;28;1335;-65
2020/12/05 11:37:11;;;;;;;;;;;22.40;53.50;;;;;;5023195;28;1304;-65
2020/12/05 11:39:36;;;;;;;;;;;22.40;53.50;;;;;;5024462;28;1431;-65
2020/12/05 11:42:01;;;;;;;;;;;22.40;53.50;;;;;;5025464;28;1866;-65
2020/12/05 11:44:27;;;;;;;;;;;22.40;53.50;;;;;;5022300;28;2026;-64
2020/12/05 11:46:52;;;;;;;;;;;22.40;53.50;;;;;;5019696;28;1898;-65
2020/12/05 11:49:18;;;;;;;;;;;22.40;53.50;;;;;;5019083;28;1272;-65
2020/12/05 11:51:43;;;;;;;;;;;22.40;53.50;;;;;;5026993;28;1310;-64
2020/12/05 11:54:09;;;;;;;;;;;22.40;53.50;;;;;;5025906;28;1056;-65
2020/12/05 11:56:34;;;;;;;;;;;22.40;53.50;;;;;;5012730;28;1136;-65
2020/12/05 11:59:00;;;;;;;;;;;22.40;53.50;;;;;;5013113;28;1217;-64
2020/12/05 12:01:25;;;;;;;;;;;22.40;53.50;;;;;;5011607;28;1128;-64
2020/12/05 12:03:51;;;;;;;;;;;22.40;53.50;;;;;;5012853;28;1104;-65
2020/12/05 12:06:19;;;;;;;;;;;22.40;53.50;;;;;;5012148;28;1883;-65
2020/12/05 12:08:48;;;;;;;;;;;22.40;53.50;;;;;;5012502;28;1387;-65
2020/12/05 12:11:22;;;;;;;;;;;22.40;53.50;;;;;;5018015;28;1221;-66
2020/12/05 12:13:47;;;;;;;;;;;22.40;53.50;;;;;;5021461;28;1236;-65
2020/12/05 12:16:13;;;;;;;;;;;22.40;53.50;;;;;;5021773;28;1252;-66
2020/12/05 12:18:39;;;;;;;;;;;22.40;53.50;;;;;;5018047;28;1328;-65
2020/12/05 12:21:04;;;;;;;;;;;22.40;53.50;;;;;;5023614;28;1200;-64
2020/12/05 12:23:30;;;;;;;;;;;22.40;53.50;;;;;;5022858;28;1184;-64
2020/12/05 12:25:55;;;;;;;;;;;22.40;53.60;;;;;;5022564;28;1910;-65
2020/12/05 12:28:21;;;;;;;;;;;22.40;53.60;;;;;;5020224;28;1374;-65
2020/12/05 12:30:47;;;;;;;;;;;22.30;53.60;;;;;;5022280;28;1196;-64
2020/12/05 12:33:12;;;;;;;;;;;22.30;53.60;;;;;;5026586;28;1030;-65
2020/12/05 12:35:38;;;;;;;;;;;22.40;53.70;;;;;;5020039;28;1246;-65
2020/12/05 12:38:03;;;;;;;;;;;22.30;53.70;;;;;;5021266;28;1343;-64
2020/12/05 12:40:29;;;;;;;;;;;22.30;53.70;;;;;;5021362;28;1220;-65
2020/12/05 12:42:57;;;;;;;;;;;22.30;53.70;;;;;;5013393;28;1200;-66
2020/12/05 12:45:28;;;;;;;;;;;22.30;53.80;;;;;;5012023;28;1895;-66
2020/12/05 12:50:44;;;;;;;;;;;22.30;53.80;;;;;;5001891;28;1466;-66
2020/12/05 12:53:10;;;;;;;;;;;22.30;53.90;;;;;;5038704;28;1229;-67
2020/12/05 12:55:35;;;;;;;;;;;22.20;53.90;;;;;;5012071;28;1633;-66
2020/12/05 12:58:27;;;;;;;;;;;22.20;54.50;;;;;;5011551;28;1382;-66
2020/12/05 13:00:49;;;;;;;;;;;22.20;54.00;;;;;;5011903;28;1378;-66
2020/12/05 13:03:14;;;;;;;;;;;22.20;54.00;;;;;;5012023;28;1080;-66
2020/12/05 13:05:40;;;;;;;;;;;22.20;54.00;;;;;;5011949;28;1918;-66
2020/12/05 13:08:05;;;;;;;;;;;22.20;54.10;;;;;;5011637;28;1277;-66
2020/12/05 13:10:31;;;;;;;;;;;22.20;54.10;;;;;;5015395;28;1060;-66
2020/12/05 13:12:56;;;;;;;;;;;22.10;54.10;;;;;;5021388;28;1244;-66
2020/12/05 13:15:22;;;;;;;;;;;22.10;54.10;;;;;;5020301;28;1199;-67
2020/12/05 13:17:47;;;;;;;;;;;22.10;54.10;;;;;;5021964;28;1240;-66
2020/12/05 13:20:13;;;;;;;;;;;22.10;54.20;;;;;;5022651;28;1287;-66
2020/12/05 13:22:38;;;;;;;;;;;22.10;54.30;;;;;;5030040;28;1203;-67
2020/12/05 13:25:04;;;;;;;;;;;22.00;46.00;;;;;;5021998;28;1071;-69
2020/12/05 13:27:29;;;;;;;;;;;21.90;42.40;;;;;;5011361;28;1898;-67
2020/12/05 13:29:55;;;;;;;;;;;21.70;43.30;;;;;;5011497;28;1217;-66
2020/12/05 13:32:21;;;;;;;;;;;21.60;42.40;;;;;;5011874;28;1080;-66
2020/12/05 13:34:47;;;;;;;;;;;21.50;41.70;;;;;;4995457;28;1167;-66
2020/12/05 13:37:12;;;;;;;;;;;21.40;42.00;;;;;;5031363;28;1107;-67
2020/12/05 13:39:38;;;;;;;;;;;21.40;41.60;;;;;;5031393;28;1220;-66
2020/12/05 13:42:03;;;;;;;;;;;21.30;41.30;;;;;;5031034;28;1063;-66
2020/12/05 13:44:29;;;;;;;;;;;21.20;40.60;;;;;;5033009;28;1060;-65
2020/12/05 13:46:55;;;;;;;;;;;21.20;39.80;;;;;;5034849;28;1902;-68
2020/12/05 13:49:21;;;;;;;;;;;21.10;39.50;;;;;;5034952;28;1426;-68
2020/12/05 13:51:46;;;;;;;;;;;21.10;39.80;;;;;;5042289;28;996;-65
2020/12/05 13:54:12;;;;;;;;;;;21.00;39.20;;;;;;5027079;28;1110;-67
2020/12/05 13:56:38;;;;;;;;;;;21.00;39.50;;;;;;5014983;28;1131;-65
2020/12/05 13:59:03;;;;;;;;;;;21.00;39.20;;;;;;5013584;28;1367;-65
2020/12/05 14:01:29;;;;;;;;;;;21.00;40.70;;;;;;5014016;28;1190;-66
2020/12/05 14:03:54;;;;;;;;;;;20.90;41.00;;;;;;5015006;28;1072;-65
2020/12/05 14:06:20;;;;;;;;;;;20.90;41.50;;;;;;5014996;28;1910;-66
2020/12/05 14:08:45;;;;;;;;;;;21.00;42.50;;;;;;5014537;28;1308;-67
2020/12/05 14:11:11;;;;;;;;;;;21.00;43.10;;;;;;5014705;28;1191;-65
2020/12/05 14:13:36;;;;;;;;;;;21.00;43.70;;;;;;5019682;28;2139;-67
2020/12/05 14:16:02;;;;;;;;;;;21.00;44.10;;;;;;5013401;28;1105;-66
2020/12/05 14:18:27;;;;;;;;;;;21.00;44.50;;;;;;5010854;28;1334;-67
2020/12/05 14:20:53;;;;;;;;;;;21.10;45.00;;;;;;5027433;28;1049;-66
2020/12/05 14:23:18;;;;;;;;;;;21.00;45.20;;;;;;5026212;28;1235;-65
2020/12/05 14:25:44;;;;;;;;;;;21.10;45.60;;;;;;5015670;28;1922;-65
2020/12/05 14:28:09;;;;;;;;;;;21.10;46.00;;;;;;5014217;28;1292;-66
2020/12/05 14:30:35;;;;;;;;;;;21.10;46.20;;;;;;5013295;28;1084;-65